Time;durP1;ratioP1;P1;durP2;ratioP2;P2;SDS_P1;SDS_P2;PMS_P1;PMS_P2;Temp;Humidity;BMP_temperature;BMP_pressure;BME280_temperature;BME280_humidity;BME280_pressure;Samples;Min_cycle;Max_cycle;Signal;HPM_P1;HPM_P2
2023/11/14 00:01:09;;;;;;;5.20;2.87;;;21.10;57.70;;;;;;5032427;28;20410;-68
2023/11/14 00:03:35;;;;;;;6.83;3.40;;;21.10;57.80;;;;;;5032393;28;20167;-68
2023/11/14 00:06:02;;;;;;;5.13;3.10;;;21.00;57.70;;;;;;5032620;28;20199;-69
2023/11/14 00:08:28;;;;;;;3.73;2.53;;;21.00;57.70;;;;;;5032224;28;20192;-68
2023/11/14 00:10:54;;;;;;;5.73;3.13;;;21.00;57.70;;;;;;5032213;28;20498;-68
2023/11/14 00:13:20;;;;;;;4.10;2.60;;;21.10;57.70;;;;;;5032296;28;20253;-67
2023/11/14 00:15:45;;;;;;;7.03;3.27;;;21.00;57.70;;;;;;5031943;28;20438;-68
2023/11/14 00:18:11;;;;;;;4.47;2.93;;;21.00;58.30;;;;;;5031800;28;20298;-69
2023/11/14 00:20:37;;;;;;;4.60;3.03;;;21.00;57.70;;;;;;5051253;28;20187;-68
2023/11/14 00:23:02;;;;;;;4.47;3.00;;;21.00;57.70;;;;;;5041321;28;20736;-68
2023/11/14 00:25:28;;;;;;;2.83;2.20;;;21.00;57.70;;;;;;5031940;28;20218;-68
2023/11/14 00:27:54;;;;;;;4.97;4.03;;;21.00;57.70;;;;;;5032168;28;20230;-69
2023/11/14 00:30:19;;;;;;;3.93;2.50;;;21.00;57.70;;;;;;5031950;28;20685;-68
2023/11/14 00:32:45;;;;;;;5.37;3.10;;;21.00;57.70;;;;;;5038634;28;20183;-68
2023/11/14 00:35:10;;;;;;;2.90;2.20;;;21.00;57.70;;;;;;5051712;28;20191;-67
2023/11/14 00:37:36;;;;;;;4.27;2.77;;;21.10;57.80;;;;;;5051525;28;20678;-69
2023/11/14 00:40:03;;;;;;;3.13;2.33;;;21.00;57.70;;;;;;5051625;28;20186;-68
2023/11/14 00:42:29;;;;;;;5.33;3.53;;;21.00;57.80;;;;;;5046797;28;20180;-68
2023/11/14 00:44:55;;;;;;;4.60;2.93;;;21.00;57.70;;;;;;5031591;28;20884;-68
2023/11/14 00:47:21;;;;;;;4.43;3.10;;;21.00;57.70;;;;;;5031476;28;20445;-68
2023/11/14 00:49:47;;;;;;;4.60;2.60;;;21.00;57.70;;;;;;5031584;28;20834;-68
2023/11/14 00:52:14;;;;;;;3.03;2.27;;;21.10;57.80;;;;;;5033676;28;20191;-69
2023/11/14 00:54:40;;;;;;;4.23;2.87;;;21.00;57.70;;;;;;5051351;28;20500;-66
2023/11/14 00:57:06;;;;;;;5.27;2.63;;;21.10;57.80;;;;;;5035772;28;20525;-69
2023/11/14 00:59:32;;;;;;;4.30;3.37;;;21.00;57.70;;;;;;5031550;28;20215;-68
2023/11/14 01:01:59;;;;;;;4.00;3.10;;;21.00;57.70;;;;;;5029827;28;20184;-69
2023/11/14 01:04:25;;;;;;;3.33;2.40;;;21.10;57.80;;;;;;5050904;28;20439;-68
2023/11/14 01:06:51;;;;;;;3.97;2.53;;;21.00;57.70;;;;;;5051017;28;20441;-69
2023/11/14 01:09:17;;;;;;;5.40;2.43;;;21.00;57.70;;;;;;5051211;28;20426;-68
2023/11/14 01:11:42;;;;;;;3.70;2.80;;;21.00;57.70;;;;;;5051066;28;20229;-68
2023/11/14 01:14:08;;;;;;;5.93;2.90;;;21.00;57.70;;;;;;5033328;28;20187;-68
2023/11/14 01:16:34;;;;;;;3.60;2.87;;;21.00;57.70;;;;;;5030945;28;20269;-68
2023/11/14 01:19:00;;;;;;;3.13;2.33;;;21.00;57.70;;;;;;5030893;28;20478;-68
2023/11/14 01:21:26;;;;;;;4.00;2.70;;;21.00;57.70;;;;;;5030923;28;20909;-67
2023/11/14 01:23:51;;;;;;;3.80;2.40;;;21.00;58.20;;;;;;5045826;28;20273;-68
2023/11/14 01:26:17;;;;;;;6.50;2.43;;;21.00;57.70;;;;;;5050624;28;20635;-69
2023/11/14 01:28:43;;;;;;;4.40;2.67;;;21.00;57.70;;;;;;5050509;28;20692;-69
2023/11/14 01:31:20;;;;;;;3.57;2.27;;;21.00;57.70;;;;;;5050597;28;20225;-68
2023/11/14 01:33:45;;;;;;;4.53;3.00;;;21.10;57.80;;;;;;5049898;28;20175;-67
2023/11/14 01:36:11;;;;;;;3.20;2.10;;;21.00;57.70;;;;;;5050530;28;20524;-69
2023/11/14 01:38:37;;;;;;;3.60;2.40;;;21.00;57.70;;;;;;5050407;28;20649;-67
2023/11/14 01:41:03;;;;;;;5.03;2.63;;;21.00;57.70;;;;;;5050470;28;20175;-67
2023/11/14 01:43:28;;;;;;;3.63;2.77;;;21.00;57.60;;;;;;5049797;28;20190;-66
2023/11/14 01:45:55;;;;;;;3.20;2.37;;;21.00;57.70;;;;;;5050356;28;20552;-69
2023/11/14 01:48:21;;;;;;;3.73;2.83;;;21.00;57.70;;;;;;5045595;28;20257;-68
2023/11/14 01:50:48;;;;;;;3.80;2.50;;;21.00;57.70;;;;;;5036581;28;20525;-68
2023/11/14 01:53:14;;;;;;;4.03;2.53;;;21.00;57.70;;;;;;5030408;28;20186;-68
2023/11/14 01:55:40;;;;;;;3.20;2.23;;;21.00;57.70;;;;;;5030316;28;20929;-67
2023/11/14 01:58:06;;;;;;;5.03;2.27;;;21.00;57.70;;;;;;5030280;28;21039;-67
2023/11/14 02:00:32;;;;;;;3.87;2.70;;;21.00;57.70;;;;;;5041583;28;20793;-67
2023/11/14 02:02:59;;;;;;;2.63;2.30;;;21.00;57.70;;;;;;5050240;28;20409;-67
2023/11/14 02:05:27;;;;;;;3.00;2.00;;;21.00;57.70;;;;;;5050153;28;20424;-67
2023/11/14 02:07:53;;;;;;;3.70;2.27;;;21.00;57.70;;;;;;5050407;28;20449;-67
2023/11/14 02:10:19;;;;;;;3.60;2.60;;;21.00;57.70;;;;;;5040470;28;20468;-67
2023/11/14 02:12:44;;;;;;;3.10;2.33;;;21.00;57.70;;;;;;5028801;28;20180;-68
2023/11/14 02:15:11;;;;;;;4.13;2.33;;;21.00;57.70;;;;;;5030148;28;20179;-67
2023/11/14 02:17:36;;;;;;;3.10;2.00;;;21.00;57.70;;;;;;5030092;28;20934;-65
2023/11/14 02:20:03;;;;;;;5.13;2.57;;;21.00;57.70;;;;;;5031140;28;20430;-67
2023/11/14 02:22:28;;;;;;;3.77;2.60;;;21.00;57.70;;;;;;5028712;28;20191;-67
2023/11/14 02:24:57;;;;;;;3.40;2.57;;;21.00;57.70;;;;;;5029950;28;20411;-67
2023/11/14 02:27:22;;;;;;;3.20;2.20;;;21.00;57.70;;;;;;5029966;28;20198;-67
2023/11/14 02:29:51;;;;;;;4.60;2.57;;;21.00;57.70;;;;;;5036184;28;20425;-68
2023/11/14 02:32:16;;;;;;;4.83;2.30;;;21.00;57.70;;;;;;5049821;28;20175;-67
2023/11/14 02:34:42;;;;;;;3.70;2.43;;;21.00;57.70;;;;;;5049783;28;20428;-68
2023/11/14 02:37:08;;;;;;;3.80;1.90;;;21.00;57.70;;;;;;5049798;28;20213;-68
2023/11/14 02:39:34;;;;;;;3.97;2.53;;;21.00;57.70;;;;;;5032108;28;20454;-67
2023/11/14 02:42:00;;;;;;;2.50;2.30;;;21.00;57.70;;;;;;5033958;28;20425;-68
2023/11/14 02:44:28;;;;;;;4.47;2.43;;;21.00;57.70;;;;;;5033815;28;20282;-67
2023/11/14 02:46:54;;;;;;;3.13;2.60;;;21.00;57.70;;;;;;5033763;28;20194;-68
2023/11/14 02:49:39;;;;;;;2.93;2.47;;;21.00;57.70;;;;;;5049272;28;20940;-68
2023/11/14 02:52:05;;;;;;;4.03;2.20;;;21.00;57.70;;;;;;5053686;28;20551;-67
2023/11/14 02:54:31;;;;;;;4.43;2.30;;;21.00;57.70;;;;;;5053595;28;20413;-68
2023/11/14 02:56:57;;;;;;;4.40;2.87;;;21.00;57.70;;;;;;5053486;28;20455;-68
2023/11/14 02:59:22;;;;;;;4.00;2.37;;;21.00;57.70;;;;;;5037128;28;20200;-67
2023/11/14 03:01:48;;;;;;;2.23;2.00;;;21.00;57.70;;;;;;5033753;28;20229;-69
2023/11/14 03:04:14;;;;;;;2.57;2.03;;;21.00;57.80;;;;;;5033524;28;20171;-68
2023/11/14 03:06:39;;;;;;;5.30;2.40;;;21.00;57.70;;;;;;5033511;28;20290;-67
2023/11/14 03:09:05;;;;;;;2.93;2.60;;;21.00;57.80;;;;;;5033353;28;20410;-68
2023/11/14 03:11:31;;;;;;;4.13;2.67;;;21.00;57.70;;;;;;5033299;28;20631;-67
2023/11/14 03:13:57;;;;;;;4.30;2.00;;;21.00;57.80;;;;;;5033245;28;20461;-67
2023/11/14 03:16:22;;;;;;;3.73;2.13;;;21.00;57.70;;;;;;5036552;28;20215;-67
2023/11/14 03:18:48;;;;;;;2.70;2.00;;;21.00;57.70;;;;;;5052839;28;20758;-68
2023/11/14 03:21:15;;;;;;;3.43;2.10;;;21.00;57.80;;;;;;5033938;28;20180;-66
2023/11/14 03:23:42;;;;;;;3.70;2.00;;;21.00;57.80;;;;;;5031821;28;20983;-67
2023/11/14 03:26:08;;;;;;;4.27;2.93;;;21.00;57.80;;;;;;5033069;28;20474;-67
2023/11/14 03:28:34;;;;;;;2.87;2.30;;;21.00;57.80;;;;;;5033329;28;20445;-67
2023/11/14 03:30:59;;;;;;;4.00;2.43;;;21.00;57.80;;;;;;5047466;28;20425;-69
2023/11/14 03:33:25;;;;;;;5.40;2.60;;;21.00;57.80;;;;;;5052842;28;20731;-67
2023/11/14 03:35:51;;;;;;;2.47;1.97;;;21.00;57.80;;;;;;5052820;28;20203;-69
2023/11/14 03:38:16;;;;;;;4.60;2.83;;;21.00;57.80;;;;;;5052701;28;20203;-67
2023/11/14 03:40:42;;;;;;;3.73;2.87;;;21.00;57.80;;;;;;5038902;28;20446;-69
2023/11/14 03:43:08;;;;;;;3.77;2.03;;;21.00;57.80;;;;;;5032826;28;20175;-66
2023/11/14 03:45:34;;;;;;;3.00;2.37;;;21.00;57.70;;;;;;5032640;28;20670;-67
2023/11/14 03:48:00;;;;;;;3.03;2.10;;;21.00;57.70;;;;;;5032716;28;20666;-68
2023/11/14 03:50:25;;;;;;;3.60;2.53;;;21.00;57.70;;;;;;5032133;28;20473;-67
2023/11/14 03:52:51;;;;;;;4.23;2.70;;;21.00;57.70;;;;;;5032594;28;20176;-68
2023/11/14 03:55:17;;;;;;;3.17;1.90;;;21.00;57.70;;;;;;5032447;28;20182;-68
2023/11/14 03:57:44;;;;;;;5.50;2.30;;;21.00;57.70;;;;;;5032386;28;20183;-67
2023/11/14 04:00:10;;;;;;;4.33;2.27;;;21.00;57.70;;;;;;5036741;28;20799;-67
2023/11/14 04:02:39;;;;;;;2.80;1.97;;;21.00;57.70;;;;;;5052281;28;20254;-68
2023/11/14 04:05:05;;;;;;;3.40;2.40;;;21.00;57.70;;;;;;5052293;28;20406;-67
2023/11/14 04:07:31;;;;;;;2.93;1.90;;;21.00;57.70;;;;;;5052244;28;20852;-67
2023/11/14 04:09:57;;;;;;;3.47;1.93;;;21.00;57.70;;;;;;5045256;28;20506;-69
2023/11/14 04:12:23;;;;;;;3.23;2.30;;;21.00;57.70;;;;;;5032200;28;20229;-64
2023/11/14 04:14:49;;;;;;;2.57;2.10;;;21.00;57.70;;;;;;5032181;28;20176;-66
2023/11/14 04:17:14;;;;;;;2.67;2.10;;;21.00;57.70;;;;;;5031954;28;20198;-68
2023/11/14 04:19:40;;;;;;;3.60;2.83;;;21.00;57.70;;;;;;5032261;28;20541;-67
2023/11/14 04:22:05;;;;;;;2.50;1.97;;;21.00;57.70;;;;;;5031971;28;20713;-68
2023/11/14 04:24:34;;;;;;;4.20;2.33;;;21.00;57.70;;;;;;5031942;28;20180;-68
2023/11/14 04:27:00;;;;;;;3.27;2.07;;;21.00;57.70;;;;;;5031836;28;20211;-67
2023/11/14 04:29:26;;;;;;;2.77;1.80;;;21.00;57.70;;;;;;5043699;28;20457;-67
2023/11/14 04:31:52;;;;;;;3.87;1.73;;;21.00;57.70;;;;;;5051699;28;20795;-68
2023/11/14 04:34:17;;;;;;;3.93;2.37;;;21.00;57.70;;;;;;5051636;28;20680;-68
2023/11/14 04:36:43;;;;;;;3.70;2.20;;;21.00;57.70;;;;;;5033918;28;20297;-68
2023/11/14 04:39:09;;;;;;;2.47;1.87;;;21.00;57.80;;;;;;5031567;28;20202;-68
2023/11/14 04:41:36;;;;;;;4.20;2.17;;;21.00;57.70;;;;;;5031873;28;20176;-67
2023/11/14 04:44:02;;;;;;;3.23;1.67;;;21.00;57.70;;;;;;5031532;28;20418;-68
2023/11/14 04:46:27;;;;;;;3.97;2.13;;;21.00;57.70;;;;;;5046299;28;20477;-67
2023/11/14 04:48:53;;;;;;;2.87;2.30;;;21.00;57.70;;;;;;5051148;28;20441;-68
2023/11/14 04:51:19;;;;;;;4.07;2.10;;;21.00;57.80;;;;;;5051312;28;20262;-68
2023/11/14 04:53:45;;;;;;;4.10;2.13;;;21.00;57.70;;;;;;5051282;28;20488;-69
2023/11/14 04:56:15;;;;;;;4.10;2.03;;;21.00;57.80;;;;;;5050564;28;20229;-67
2023/11/14 04:58:40;;;;;;;2.80;1.70;;;21.00;57.70;;;;;;5051120;28;20199;-67
2023/11/14 05:01:06;;;;;;;2.50;1.70;;;21.00;58.30;;;;;;5051078;28;20459;-69
2023/11/14 05:03:32;;;;;;;2.43;1.80;;;21.00;57.80;;;;;;5050301;28;20194;-67
2023/11/14 05:05:58;;;;;;;2.60;1.77;;;21.00;57.80;;;;;;5050442;28;20525;-67
2023/11/14 05:08:24;;;;;;;2.77;1.70;;;21.00;57.80;;;;;;5051213;28;20229;-69
2023/11/14 05:10:49;;;;;;;3.17;1.97;;;21.00;57.80;;;;;;5050805;28;20425;-67
2023/11/14 05:13:16;;;;;;;2.60;2.10;;;21.00;57.80;;;;;;5050853;28;20202;-69
2023/11/14 05:15:41;;;;;;;2.77;2.33;;;21.00;57.80;;;;;;5042170;28;20200;-67
2023/11/14 05:18:08;;;;;;;3.17;1.77;;;21.00;57.80;;;;;;5030947;28;20466;-68
2023/11/14 05:20:33;;;;;;;4.10;2.03;;;21.00;57.80;;;;;;5030873;28;20174;-67
2023/11/14 05:22:59;;;;;;;6.60;2.07;;;21.00;57.80;;;;;;5030854;28;20989;-67
2023/11/14 05:25:25;;;;;;;2.67;1.87;;;21.00;57.80;;;;;;5030949;28;20201;-66
2023/11/14 05:27:50;;;;;;;2.60;2.10;;;21.00;57.80;;;;;;5038541;28;20187;-68
2023/11/14 05:30:16;;;;;;;3.60;1.97;;;21.00;57.80;;;;;;5050668;28;20163;-67
2023/11/14 05:32:42;;;;;;;3.17;2.20;;;21.00;57.80;;;;;;5050662;28;20190;-68
2023/11/14 05:35:08;;;;;;;3.93;1.87;;;21.00;57.80;;;;;;5050540;28;20170;-68
2023/11/14 05:37:35;;;;;;;4.07;2.00;;;21.00;57.70;;;;;;5045671;28;20200;-67
2023/11/14 05:40:00;;;;;;;2.77;1.67;;;21.00;57.70;;;;;;5030479;28;21024;-67
2023/11/14 05:42:26;;;;;;;6.53;2.33;;;21.00;57.70;;;;;;5030511;28;20541;-66
2023/11/14 05:44:52;;;;;;;2.83;1.97;;;21.00;57.70;;;;;;5030300;28;20175;-68
2023/11/14 05:47:18;;;;;;;2.90;1.70;;;21.00;57.70;;;;;;5032221;28;20306;-67
2023/11/14 05:49:44;;;;;;;4.17;1.93;;;21.00;57.80;;;;;;5050353;28;20244;-66
2023/11/14 05:52:10;;;;;;;3.20;1.70;;;21.00;57.80;;;;;;5050623;28;20421;-68
2023/11/14 05:54:36;;;;;;;2.90;2.13;;;21.00;57.80;;;;;;5050034;28;20425;-69
2023/11/14 05:57:02;;;;;;;3.27;1.80;;;21.00;57.80;;;;;;5050098;28;20468;-66
2023/11/14 05:59:28;;;;;;;3.43;1.67;;;21.00;57.80;;;;;;5048503;28;20544;-67
2023/11/14 06:01:54;;;;;;;3.20;1.60;;;21.00;57.80;;;;;;5050105;28;20167;-68
2023/11/14 06:04:21;;;;;;;2.40;1.67;;;21.00;57.80;;;;;;5049090;28;20270;-67
2023/11/14 06:06:47;;;;;;;2.10;1.70;;;21.00;57.80;;;;;;5049950;28;20193;-67
2023/11/14 06:09:12;;;;;;;2.40;2.03;;;21.00;57.80;;;;;;5050159;28;20412;-68
2023/11/14 06:11:38;;;;;;;3.83;1.80;;;21.00;57.80;;;;;;5049986;28;20499;-68
2023/11/14 06:14:04;;;;;;;3.30;1.93;;;21.00;57.80;;;;;;5049608;28;20171;-68
2023/11/14 06:16:31;;;;;;;3.87;1.90;;;21.00;57.80;;;;;;5049908;28;20597;-69
2023/11/14 06:18:56;;;;;;;2.13;1.83;;;21.00;57.80;;;;;;5049692;28;20583;-69
2023/11/14 06:21:22;;;;;;;3.43;2.03;;;21.00;57.80;;;;;;5049887;28;20410;-66
2023/11/14 06:23:48;;;;;;;3.07;1.80;;;21.00;58.30;;;;;;5049469;28;20606;-69
2023/11/14 06:26:14;;;;;;;2.23;1.63;;;21.00;57.90;;;;;;5048000;28;20198;-68
2023/11/14 06:28:40;;;;;;;3.30;1.73;;;21.00;57.80;;;;;;5050062;28;20414;-66
2023/11/14 06:31:05;;;;;;;2.03;1.60;;;21.00;57.80;;;;;;5049732;28;20171;-67
2023/11/14 06:33:32;;;;;;;4.17;1.90;;;21.00;57.80;;;;;;5049812;28;20598;-68
2023/11/14 06:35:59;;;;;;;2.80;1.73;;;21.00;57.80;;;;;;5049680;28;20795;-68
2023/11/14 06:38:24;;;;;;;3.90;2.00;;;21.00;57.70;;;;;;5049563;28;20448;-69
2023/11/14 06:40:50;;;;;;;2.43;1.63;;;21.00;57.70;;;;;;5049693;28;20418;-65
2023/11/14 06:43:16;;;;;;;5.13;2.03;;;21.00;57.80;;;;;;5049662;28;20175;-66
2023/11/14 06:45:41;;;;;;;6.00;2.17;;;21.00;57.70;;;;;;5049599;28;20195;-67
2023/11/14 06:48:07;;;;;;;1.90;1.50;;;21.00;57.70;;;;;;5049858;28;20186;-68
2023/11/14 06:50:33;;;;;;;2.53;1.37;;;21.10;57.80;;;;;;5049569;28;20174;-68
2023/11/14 06:52:59;;;;;;;1.97;1.40;;;21.10;57.80;;;;;;5048127;28;20179;-67
2023/11/14 06:55:25;;;;;;;4.23;1.73;;;21.10;57.80;;;;;;5049397;28;20791;-68
2023/11/14 06:57:51;;;;;;;4.33;1.90;;;21.10;57.80;;;;;;5049420;28;20266;-68
2023/11/14 07:00:18;;;;;;;5.50;2.00;;;21.10;57.80;;;;;;5049458;28;20401;-67
2023/11/14 07:02:44;;;;;;;3.30;1.97;;;21.10;57.80;;;;;;5048037;28;20460;-67
2023/11/14 07:05:20;;;;;;;3.30;1.50;;;21.10;57.70;;;;;;5050864;28;20441;-69
2023/11/14 07:07:46;;;;;;;2.37;1.60;;;21.10;57.70;;;;;;5051003;28;20178;-68
2023/11/14 07:10:12;;;;;;;1.80;1.50;;;21.10;57.80;;;;;;5049463;28;20501;-68
2023/11/14 07:12:38;;;;;;;3.70;2.20;;;21.10;57.70;;;;;;5049153;28;20496;-67
2023/11/14 07:15:06;;;;;;;3.50;1.77;;;21.10;57.70;;;;;;5049284;28;20181;-66
2023/11/14 07:17:32;;;;;;;3.67;1.97;;;21.10;57.70;;;;;;5049155;28;21090;-67
2023/11/14 07:19:58;;;;;;;3.07;1.60;;;21.10;57.70;;;;;;5049322;28;20997;-68
2023/11/14 07:22:23;;;;;;;2.73;1.60;;;21.10;57.70;;;;;;5049322;28;20441;-65
2023/11/14 07:24:49;;;;;;;3.17;1.77;;;21.10;57.80;;;;;;5049574;28;20633;-67
2023/11/14 07:27:15;;;;;;;3.70;2.10;;;21.10;57.70;;;;;;5052400;28;20191;-67
2023/11/14 07:29:41;;;;;;;2.53;1.73;;;21.10;57.80;;;;;;5052858;28;20179;-68
2023/11/14 07:32:11;;;;;;;2.90;1.80;;;21.10;57.70;;;;;;5052678;28;20505;-68
2023/11/14 07:34:36;;;;;;;2.30;1.37;;;21.10;57.70;;;;;;5052775;28;20417;-67
2023/11/14 07:37:02;;;;;;;2.53;1.70;;;21.10;57.70;;;;;;5052789;28;20436;-67
2023/11/14 07:39:28;;;;;;;3.47;1.80;;;21.10;57.70;;;;;;5052549;28;20190;-67
2023/11/14 07:41:53;;;;;;;2.87;1.70;;;21.10;57.80;;;;;;5052622;28;20195;-68
2023/11/14 07:44:19;;;;;;;2.50;1.50;;;21.10;57.70;;;;;;5052882;28;20193;-67
2023/11/14 07:46:45;;;;;;;2.23;1.60;;;21.10;57.70;;;;;;5052542;28;20183;-69
2023/11/14 07:49:11;;;;;;;1.97;1.23;;;21.10;57.70;;;;;;5052558;28;20744;-66
2023/11/14 07:51:36;;;;;;;3.00;1.80;;;21.10;57.70;;;;;;5052473;28;20261;-68
2023/11/14 07:54:02;;;;;;;2.67;1.70;;;21.10;57.80;;;;;;5052417;28;21042;-67
2023/11/14 07:56:28;;;;;;;3.10;1.40;;;21.10;57.70;;;;;;5052368;28;20199;-68
2023/11/14 07:58:54;;;;;;;3.43;1.57;;;21.10;57.70;;;;;;5052275;28;20704;-69
2023/11/14 08:01:20;;;;;;;2.07;1.57;;;21.10;57.70;;;;;;5052325;28;20410;-67
2023/11/14 08:03:45;;;;;;;2.27;1.60;;;21.10;57.70;;;;;;5052225;28;20721;-70
2023/11/14 08:06:11;;;;;;;2.80;1.73;;;21.10;57.80;;;;;;5052225;28;20709;-68
2023/11/14 08:08:37;;;;;;;3.43;1.60;;;21.10;57.80;;;;;;5052229;28;20224;-66
2023/11/14 08:11:03;;;;;;;3.37;1.70;;;21.10;57.80;;;;;;5052205;28;20167;-67
2023/11/14 08:13:29;;;;;;;4.13;1.83;;;21.10;57.80;;;;;;5052169;28;20177;-68
2023/11/14 08:15:54;;;;;;;2.33;1.50;;;21.10;57.80;;;;;;5051975;28;20421;-68
2023/11/14 08:18:20;;;;;;;2.67;2.10;;;21.10;57.80;;;;;;5052013;28;20214;-67
2023/11/14 08:20:46;;;;;;;2.27;1.70;;;21.10;57.80;;;;;;5051867;28;20178;-68
2023/11/14 08:23:12;;;;;;;3.17;2.50;;;21.10;57.80;;;;;;5052260;28;20181;-67
2023/11/14 08:25:38;;;;;;;2.00;1.57;;;21.10;57.80;;;;;;5051906;28;20193;-67
2023/11/14 08:28:04;;;;;;;2.77;1.87;;;21.10;57.80;;;;;;5051859;28;20479;-68
2023/11/14 08:30:30;;;;;;;2.87;1.60;;;21.10;57.80;;;;;;5052061;28;20551;-68
2023/11/14 08:32:56;;;;;;;2.80;1.50;;;21.10;57.80;;;;;;5051776;28;20425;-69
2023/11/14 08:35:25;;;;;;;2.73;1.60;;;21.10;57.80;;;;;;5051659;28;20487;-67
2023/11/14 08:37:54;;;;;;;2.60;1.50;;;21.10;57.80;;;;;;5051663;28;20421;-69
2023/11/14 08:40:21;;;;;;;1.90;1.57;;;21.10;57.80;;;;;;5051665;28;20912;-67
2023/11/14 08:42:51;;;;;;;4.00;1.83;;;21.10;57.80;;;;;;5051591;28;20406;-68
2023/11/14 08:45:17;;;;;;;1.47;1.37;;;21.10;57.90;;;;;;5051537;28;21159;-68
2023/11/14 08:47:42;;;;;;;2.53;1.57;;;21.10;57.90;;;;;;5051558;28;20489;-69
2023/11/14 08:50:09;;;;;;;3.30;1.77;;;21.10;57.90;;;;;;5051521;28;20418;-68
2023/11/14 08:52:35;;;;;;;2.00;1.80;;;21.10;57.90;;;;;;5051445;28;20734;-68
2023/11/14 08:55:01;;;;;;;2.10;1.67;;;21.10;57.90;;;;;;5051641;28;20508;-69
2023/11/14 08:57:28;;;;;;;3.13;1.83;;;21.10;57.90;;;;;;5051362;28;20199;-68
2023/11/14 08:59:55;;;;;;;2.50;1.40;;;21.10;57.90;;;;;;5051276;28;20471;-68
2023/11/14 09:02:21;;;;;;;2.33;1.63;;;21.10;57.90;;;;;;5051270;28;20505;-69
2023/11/14 09:04:47;;;;;;;2.60;1.60;;;21.10;57.90;;;;;;5051217;28;20409;-68
2023/11/14 09:07:13;;;;;;;2.30;1.70;;;21.10;57.90;;;;;;5049794;28;20440;-69
2023/11/14 09:09:39;;;;;;;2.13;1.30;;;21.10;57.90;;;;;;5051181;28;20713;-67
2023/11/14 09:12:08;;;;;;;2.73;1.50;;;21.10;57.90;;;;;;5051137;28;20178;-68
2023/11/14 09:14:34;;;;;;;2.57;2.07;;;21.10;57.90;;;;;;5051019;28;20471;-68
2023/11/14 09:16:59;;;;;;;5.90;1.77;;;21.10;57.90;;;;;;5050903;28;20437;-67
2023/11/14 09:19:25;;;;;;;1.73;1.33;;;21.10;57.90;;;;;;5050667;28;20210;-68
2023/11/14 09:21:51;;;;;;;2.60;1.63;;;21.10;57.90;;;;;;5051153;28;20179;-66
2023/11/14 09:24:17;;;;;;;2.90;2.50;;;21.10;57.90;;;;;;5050864;28;20178;-68
2023/11/14 09:26:43;;;;;;;1.83;1.10;;;21.10;58.50;;;;;;5050701;28;20195;-68
2023/11/14 09:29:09;;;;;;;5.93;1.67;;;21.10;57.90;;;;;;5050809;28;20424;-68
2023/11/14 09:31:34;;;;;;;3.00;1.40;;;21.10;58.00;;;;;;5050654;28;20414;-68
2023/11/14 09:34:00;;;;;;;2.30;1.37;;;21.10;57.90;;;;;;5050716;28;20210;-68
2023/11/14 09:36:26;;;;;;;1.90;1.40;;;21.10;58.00;;;;;;5050545;28;20272;-66
2023/11/14 09:38:52;;;;;;;3.00;1.50;;;21.10;58.00;;;;;;5050484;28;20198;-68
2023/11/14 09:41:19;;;;;;;3.93;1.33;;;21.10;57.90;;;;;;5049265;28;20402;-68
2023/11/14 09:43:44;;;;;;;2.90;1.83;;;21.10;57.90;;;;;;5050584;28;20167;-67
2023/11/14 09:46:13;;;;;;;2.40;1.60;;;21.10;58.00;;;;;;5050419;28;20428;-66
2023/11/14 09:48:39;;;;;;;3.60;1.60;;;21.10;57.90;;;;;;5050006;28;20185;-67
2023/11/14 09:51:06;;;;;;;2.83;1.37;;;21.10;57.90;;;;;;5050362;28;20505;-67
2023/11/14 09:53:32;;;;;;;1.80;1.37;;;21.10;57.90;;;;;;5050339;28;20421;-69
2023/11/14 09:55:58;;;;;;;1.40;1.00;;;21.10;57.90;;;;;;5050525;28;20520;-68
2023/11/14 09:58:24;;;;;;;2.00;1.37;;;21.10;58.00;;;;;;5050127;28;20536;-65
2023/11/14 10:00:50;;;;;;;2.37;1.27;;;21.20;58.10;;;;;;5050244;28;20736;-67
2023/11/14 10:03:17;;;;;;;2.50;1.60;;;21.10;57.90;;;;;;5050170;28;20216;-67
2023/11/14 10:05:44;;;;;;;1.93;1.30;;;21.10;57.90;;;;;;5050096;28;21015;-69
2023/11/14 10:08:14;;;;;;;2.07;1.30;;;21.10;57.90;;;;;;5050439;28;20416;-68
2023/11/14 10:11:09;;;;;;;2.30;1.50;;;21.10;58.00;;;;;;5050012;28;20428;-67
2023/11/14 10:13:39;;;;;;;1.47;1.00;;;21.10;58.00;;;;;;5050159;28;20401;-67
2023/11/14 10:16:16;;;;;;;2.70;1.40;;;21.10;58.00;;;;;;5049988;28;20502;-66
2023/11/14 10:18:43;;;;;;;1.57;1.20;;;21.10;58.00;;;;;;5049817;28;20480;-68
2023/11/14 10:21:28;;;;;;;2.33;1.47;;;21.10;58.00;;;;;;5050246;28;20445;-66
2023/11/14 10:23:55;;;;;;;2.13;1.30;;;21.10;58.00;;;;;;5049874;28;20405;-68
2023/11/14 10:26:22;;;;;;;1.73;1.20;;;21.10;58.00;;;;;;5049815;28;20425;-68
2023/11/14 10:28:55;;;;;;;2.60;1.40;;;21.10;58.00;;;;;;5049952;28;20905;-64
2023/11/14 10:31:34;;;;;;;2.63;1.70;;;21.10;57.90;;;;;;5049938;28;20402;-69
2023/11/14 10:34:01;;;;;;;1.97;1.30;;;21.10;57.90;;;;;;5049942;28;20412;-69
2023/11/14 10:36:26;;;;;;;2.53;1.50;;;21.10;57.90;;;;;;5049771;28;20444;-67
2023/11/14 10:39:03;;;;;;;2.60;1.60;;;21.10;58.50;;;;;;5049973;28;20461;-69
2023/11/14 10:41:30;;;;;;;2.37;1.27;;;21.10;57.90;;;;;;5049828;28;20190;-68
2023/11/14 10:43:55;;;;;;;2.47;1.57;;;21.10;57.90;;;;;;5049668;28;20409;-67
2023/11/14 10:46:21;;;;;;;2.00;1.33;;;21.10;57.90;;;;;;5049703;28;20441;-69
2023/11/14 10:48:46;;;;;;;2.50;1.43;;;21.10;58.00;;;;;;5049749;28;20175;-67
2023/11/14 10:51:13;;;;;;;2.17;1.20;;;21.10;57.90;;;;;;5050012;28;20174;-68
2023/11/14 10:53:39;;;;;;;2.47;1.57;;;21.10;57.90;;;;;;5049735;28;20718;-68
2023/11/14 10:56:11;;;;;;;2.80;1.70;;;21.20;58.00;;;;;;5049835;28;20516;-67
2023/11/14 10:58:37;;;;;;;1.73;1.30;;;21.10;57.90;;;;;;5049604;28;20456;-69
2023/11/14 11:01:05;;;;;;;2.50;1.40;;;21.10;57.90;;;;;;5051138;28;20490;-70
2023/11/14 11:03:33;;;;;;;2.83;1.30;;;21.10;58.00;;;;;;5053573;28;20786;-68
2023/11/14 11:05:58;;;;;;;2.10;1.10;;;21.10;57.90;;;;;;5053216;28;20926;-67
2023/11/14 11:08:24;;;;;;;2.67;1.50;;;21.10;57.90;;;;;;5053322;28;20416;-68
2023/11/14 11:10:50;;;;;;;2.13;1.27;;;21.10;57.90;;;;;;5053715;28;20225;-68
2023/11/14 11:13:21;;;;;;;1.70;1.20;;;21.10;57.90;;;;;;5053221;28;20421;-68
2023/11/14 11:15:56;;;;;;;3.80;1.60;;;21.10;57.90;;;;;;5053116;28;20433;-68
2023/11/14 11:18:38;;;;;;;1.47;1.20;;;21.10;57.90;;;;;;5052864;28;20495;-68
2023/11/14 11:21:14;;;;;;;2.17;1.30;;;21.10;57.90;;;;;;5053167;28;20808;-69
2023/11/14 11:24:14;;;;;;;2.70;1.40;;;21.10;57.90;;;;;;5053114;28;20395;-68
2023/11/14 11:27:15;;;;;;;2.03;1.20;;;21.10;57.90;;;;;;5053229;28;20665;-68
2023/11/14 11:29:44;;;;;;;2.00;1.30;;;21.10;58.00;;;;;;5041088;28;20421;-67
2023/11/14 11:32:23;;;;;;;1.60;1.10;;;21.10;58.00;;;;;;5052964;28;20870;-68
2023/11/14 11:35:20;;;;;;;2.67;1.40;;;21.20;58.10;;;;;;5052970;28;20401;-68
2023/11/14 11:37:47;;;;;;;1.73;1.30;;;21.10;58.00;;;;;;5052938;28;20406;-67
2023/11/14 11:40:13;;;;;;;1.30;0.90;;;21.10;58.00;;;;;;5052734;28;20449;-67
2023/11/14 11:42:43;;;;;;;1.37;1.00;;;21.10;58.00;;;;;;5052764;28;20409;-67
2023/11/14 11:45:30;;;;;;;4.13;1.67;;;21.10;58.00;;;;;;5052641;28;20421;-67
2023/11/14 11:47:59;;;;;;;1.50;1.40;;;21.20;58.10;;;;;;5052860;28;20871;-67
2023/11/14 11:50:30;;;;;;;2.07;1.33;;;21.10;58.00;;;;;;5052622;28;20402;-68
2023/11/14 11:53:06;;;;;;;3.80;2.30;;;21.10;58.00;;;;;;5052803;28;20404;-64
2023/11/14 11:55:34;;;;;;;8.13;4.30;;;21.10;58.00;;;;;;5052650;28;20413;-68
2023/11/14 11:58:05;;;;;;;8.97;5.43;;;21.10;58.00;;;;;;5052648;28;20421;-67
2023/11/14 12:00:31;;;;;;;7.23;4.60;;;21.10;58.00;;;;;;5052724;28;20508;-67
2023/11/14 12:03:02;;;;;;;21.20;12.77;;;21.10;58.00;;;;;;5052646;28;20568;-68
2023/11/14 12:05:29;;;;;;;22.20;12.30;;;21.10;58.50;;;;;;5052709;28;20428;-66
2023/11/14 12:08:04;;;;;;;25.10;14.53;;;21.10;58.00;;;;;;5052815;28;20409;-65
2023/11/14 12:10:30;;;;;;;29.43;16.83;;;21.10;58.00;;;;;;5052570;28;20494;-65
2023/11/14 12:12:57;;;;;;;26.20;15.60;;;21.10;58.00;;;;;;5052262;28;20506;-68
2023/11/14 12:15:24;;;;;;;28.57;17.87;;;21.20;58.10;;;;;;5052233;28;20186;-66
2023/11/14 12:17:51;;;;;;;31.80;18.00;;;21.10;58.00;;;;;;5052440;28;20471;-68
2023/11/14 12:20:18;;;;;;;25.67;17.43;;;21.10;58.00;;;;;;5050923;28;20444;-67
2023/11/14 12:22:47;;;;;;;30.00;18.53;;;21.10;58.00;;;;;;5052298;28;20405;-67
2023/11/14 12:25:13;;;;;;;31.27;18.13;;;21.10;58.00;;;;;;5052376;28;20492;-68
2023/11/14 12:27:38;;;;;;;32.13;21.13;;;21.10;58.00;;;;;;5051966;28;20428;-67
2023/11/14 12:30:12;;;;;;;32.93;18.83;;;21.10;58.00;;;;;;5051790;28;20394;-67
2023/11/14 12:32:38;;;;;;;32.80;22.03;;;21.20;58.10;;;;;;5051870;28;20609;-67
2023/11/14 12:35:05;;;;;;;34.73;19.90;;;21.10;58.00;;;;;;5051640;28;20410;-67
2023/11/14 12:37:31;;;;;;;35.17;22.23;;;21.10;58.00;;;;;;5051563;28;20425;-68
2023/11/14 12:40:06;;;;;;;36.27;21.80;;;21.20;58.10;;;;;;5051745;28;20449;-67
2023/11/14 12:42:38;;;;;;;38.70;23.47;;;21.20;58.10;;;;;;5052004;28;20428;-67
2023/11/14 12:45:08;;;;;;;36.30;22.47;;;21.20;58.10;;;;;;5051534;28;20394;-67